Time;durP1;ratioP1;P1;durP2;ratioP2;P2;SDS_P1;SDS_P2;PMS_P1;PMS_P2;Temp;Humidity;BMP_temperature;BMP_pressure;BME280_temperature;BME280_humidity;BME280_pressure;Samples;Min_cycle;Max_cycle;Signal;HPM_P1;HPM_P2
2023/06/05 00:00:29;;;;;;;5.00;2.50;;;;;;;22.81;47.95;100310.31;5013144;28;20478;-64
2023/06/05 00:02:55;;;;;;;5.03;2.67;;;;;;;22.81;48.04;100321.84;5008110;28;20177;-64
2023/06/05 00:05:20;;;;;;;4.40;2.50;;;;;;;22.80;47.77;100321.03;5010479;28;20261;-64
2023/06/05 00:07:46;;;;;;;4.00;2.50;;;;;;;22.79;47.70;100322.28;5009092;28;20231;-64
2023/06/05 00:10:13;;;;;;;4.47;2.40;;;;;;;22.80;47.98;100317.31;5013565;28;20212;-64
2023/06/05 00:12:38;;;;;;;3.73;1.90;;;;;;;22.79;48.03;100319.38;5027923;28;20232;-64
2023/06/05 00:15:05;;;;;;;3.87;2.57;;;;;;;22.79;47.66;100316.50;5021594;28;20470;-64
2023/06/05 00:17:31;;;;;;;5.37;2.50;;;;;;;22.79;47.34;100315.69;5005557;28;20460;-64
2023/06/05 00:19:58;;;;;;;3.47;1.90;;;;;;;22.79;47.61;100319.38;5005688;28;20415;-64
2023/06/05 00:22:26;;;;;;;4.20;2.60;;;;;;;22.77;47.76;100316.09;5007282;28;20168;-64
2023/06/05 00:24:52;;;;;;;3.10;2.20;;;;;;;22.77;47.58;100316.09;5008913;28;20447;-64
2023/06/05 00:27:18;;;;;;;3.43;2.60;;;;;;;22.78;47.64;100316.91;5021361;28;20435;-64
2023/06/05 00:29:43;;;;;;;3.87;2.30;;;;;;;22.78;47.77;100320.59;5024856;28;20235;-64
2023/06/05 00:32:08;;;;;;;3.70;2.43;;;;;;;22.78;47.71;100322.66;5016187;28;20711;-64
2023/06/05 00:34:34;;;;;;;5.27;3.00;;;;;;;22.77;47.45;100310.31;5012657;28;20730;-64
2023/06/05 00:37:00;;;;;;;4.57;2.83;;;;;;;22.77;47.63;100315.28;5013869;28;20267;-64
2023/06/05 00:39:25;;;;;;;4.00;2.57;;;;;;;22.77;48.00;100318.16;5007878;28;20166;-64
2023/06/05 00:41:51;;;;;;;3.67;2.00;;;;;;;22.77;47.97;100312.41;5023819;28;20184;-64
2023/06/05 00:44:18;;;;;;;4.93;2.80;;;;;;;22.76;47.59;100311.56;5020952;28;20185;-64
2023/06/05 00:46:43;;;;;;;3.03;2.13;;;;;;;22.75;47.75;100318.56;5021080;28;20207;-64
2023/06/05 00:49:08;;;;;;;5.43;3.37;;;;;;;22.76;47.94;100316.47;5027519;28;20422;-64
2023/06/05 00:51:34;;;;;;;4.30;2.30;;;;;;;22.75;47.46;100321.44;5027773;28;20187;-64
2023/06/05 00:53:59;;;;;;;5.90;2.33;;;;;;;22.76;47.39;100320.19;5023920;28;20181;-64
2023/06/05 00:56:25;;;;;;;3.03;2.20;;;;;;;22.76;47.92;100323.06;5009139;28;20267;-64
2023/06/05 00:58:52;;;;;;;4.40;2.73;;;;;;;22.75;47.75;100323.47;5007988;28;20185;-64
2023/06/05 01:01:20;;;;;;;3.87;2.43;;;;;;;22.74;47.74;100319.78;5022636;28;20951;-64
2023/06/05 01:03:47;;;;;;;4.10;2.53;;;;;;;22.74;47.20;100319.78;5030349;28;20496;-64
2023/06/05 01:06:13;;;;;;;4.60;2.47;;;;;;;22.75;47.33;100318.56;5023814;28;20428;-64
2023/06/05 01:08:39;;;;;;;8.07;2.77;;;;;;;22.74;47.86;100316.91;4977749;28;20827;-64
2023/06/05 01:11:18;;;;;;;3.00;2.20;;;;;;;22.74;47.78;100311.16;5022354;28;20419;-64
2023/06/05 01:13:50;;;;;;;4.43;2.43;;;;;;;22.72;47.42;100310.72;5012214;28;20232;-64
2023/06/05 01:16:15;;;;;;;4.10;2.57;;;;;;;22.73;47.87;100309.50;5008147;28;20530;-64
2023/06/05 01:18:40;;;;;;;3.30;2.10;;;;;;;22.73;47.88;100306.59;5020424;28;20434;-64
2023/06/05 01:21:13;;;;;;;4.90;2.50;;;;;;;22.73;47.30;100297.16;5029524;28;20256;-64
2023/06/05 01:23:45;;;;;;;4.07;2.50;;;;;;;22.73;47.69;100302.94;5024490;28;20173;-64
2023/06/05 01:26:18;;;;;;;3.30;2.27;;;;;;;22.72;47.59;100304.97;5010595;28;20439;-64
2023/06/05 01:28:45;;;;;;;4.97;2.90;;;;;;;22.72;47.64;100302.09;5007924;28;20487;-63
2023/06/05 01:31:14;;;;;;;3.90;2.40;;;;;;;22.73;47.71;100302.94;4992511;28;21177;-64
2023/06/05 01:33:45;;;;;;;4.33;2.43;;;;;;;22.72;47.83;100302.09;5008794;28;20444;-64
2023/06/05 01:36:11;;;;;;;4.10;2.70;;;;;;;22.71;47.79;100303.34;5009597;28;20467;-64
2023/06/05 01:38:37;;;;;;;6.00;2.67;;;;;;;22.71;47.43;100305.38;5010103;28;20405;-64
2023/06/05 01:41:02;;;;;;;3.60;2.20;;;;;;;22.71;47.70;100300.44;5012082;28;20547;-64
2023/06/05 01:43:28;;;;;;;4.10;2.70;;;;;;;22.71;47.86;100300.44;5023693;28;20212;-64
2023/06/05 01:45:56;;;;;;;4.03;2.57;;;;;;;22.70;47.66;100304.56;5022734;28;20185;-63
2023/06/05 01:48:23;;;;;;;4.00;2.80;;;;;;;22.70;47.95;100290.19;5029115;28;20419;-64
2023/06/05 01:50:49;;;;;;;3.60;2.23;;;;;;;22.70;47.88;100295.94;5030618;28;20480;-63
2023/06/05 01:53:16;;;;;;;4.60;2.73;;;;;;;22.70;47.72;100293.06;5026534;28;20430;-63
2023/06/05 01:55:42;;;;;;;4.07;2.50;;;;;;;22.70;47.53;100290.19;5030079;28;20271;-63
2023/06/05 01:58:07;;;;;;;4.20;2.50;;;;;;;22.69;47.65;100294.28;5030344;28;20531;-64
2023/06/05 02:00:35;;;;;;;4.17;2.80;;;;;;;22.69;47.47;100291.41;5020661;28;20239;-64
2023/06/05 02:03:00;;;;;;;5.20;2.60;;;;;;;22.69;47.55;100285.66;5009403;28;20185;-64
2023/06/05 02:05:29;;;;;;;3.90;2.50;;;;;;;22.69;47.46;100291.41;5009864;28;22723;-63
2023/06/05 02:07:58;;;;;;;4.30;2.27;;;;;;;22.69;47.93;100294.28;5011578;28;20668;-63
2023/06/05 02:10:23;;;;;;;4.07;2.27;;;;;;;22.69;47.48;100287.69;5017815;28;20450;-64
2023/06/05 02:12:49;;;;;;;4.17;2.83;;;;;;;22.68;47.70;100292.63;5015196;28;20507;-64
2023/06/05 02:15:14;;;;;;;5.33;2.77;;;;;;;22.68;47.48;100288.94;5006860;28;20189;-64
2023/06/05 02:17:53;;;;;;;3.97;2.33;;;;;;;22.69;47.84;100287.69;5011105;28;20555;-64
2023/06/05 02:20:24;;;;;;;3.17;2.00;;;;;;;22.68;47.75;100288.94;5009405;28;20161;-64
2023/06/05 02:22:51;;;;;;;4.07;2.40;;;;;;;22.67;47.68;100296.75;5010358;28;20910;-64
2023/06/05 02:25:20;;;;;;;3.97;2.60;;;;;;;22.67;47.51;100296.75;5014679;28;20499;-64
2023/06/05 02:27:46;;;;;;;4.53;2.23;;;;;;;22.68;48.00;100294.69;5022308;28;20430;-64
2023/06/05 02:30:12;;;;;;;3.60;2.50;;;;;;;22.68;47.46;100303.34;5026865;28;20419;-64
2023/06/05 02:32:41;;;;;;;4.37;2.40;;;;;;;22.66;48.04;100303.72;5010377;28;20185;-64
2023/06/05 02:35:08;;;;;;;4.97;2.63;;;;;;;22.66;47.56;100297.16;5010410;28;21031;-63
2023/06/05 02:37:36;;;;;;;4.97;2.50;;;;;;;22.65;47.96;100299.22;5027061;28;20477;-63
2023/06/05 02:40:07;;;;;;;3.83;2.37;;;;;;;22.66;47.58;100302.91;5023969;28;20443;-64
2023/06/05 02:42:34;;;;;;;4.10;2.23;;;;;;;22.65;47.64;100302.09;5029491;28;20502;-64
2023/06/05 02:44:59;;;;;;;4.17;2.77;;;;;;;22.65;47.93;100302.09;5028892;28;20403;-63
2023/06/05 02:47:25;;;;;;;5.30;2.33;;;;;;;22.66;47.77;100302.91;5029179;28;20485;-64
2023/06/05 02:49:50;;;;;;;4.43;2.83;;;;;;;22.64;47.69;100309.09;5020002;28;20177;-63
2023/06/05 02:52:16;;;;;;;3.80;2.10;;;;;;;22.64;47.80;100300.47;5016225;28;20188;-64
2023/06/05 02:54:41;;;;;;;4.83;2.67;;;;;;;22.65;47.93;100298.38;5028900;28;20180;-64
2023/06/05 02:57:08;;;;;;;3.90;2.67;;;;;;;22.64;47.80;100293.88;5028809;28;20239;-63
2023/06/05 02:59:39;;;;;;;3.50;2.30;;;;;;;22.64;48.04;100293.88;5027454;28;20212;-63
2023/06/05 03:02:05;;;;;;;3.53;2.40;;;;;;;22.62;48.00;100297.16;5009549;28;20957;-64
2023/06/05 03:04:32;;;;;;;4.03;2.40;;;;;;;22.63;47.96;100297.97;5009666;28;20430;-64
2023/06/05 03:06:57;;;;;;;3.70;2.30;;;;;;;22.63;47.79;100298.78;5009329;28;20432;-63
2023/06/05 03:09:23;;;;;;;4.80;2.77;;;;;;;22.63;48.03;100306.63;5014191;28;20459;-64
2023/06/05 03:11:49;;;;;;;4.47;2.90;;;;;;;22.62;47.97;100302.09;5028679;28;20176;-63
2023/06/05 03:14:14;;;;;;;3.67;2.23;;;;;;;22.62;47.69;100305.78;5019777;28;20243;-63
2023/06/05 03:16:43;;;;;;;4.50;2.10;;;;;;;22.62;47.70;100302.09;5009027;28;20197;-63
2023/06/05 03:19:10;;;;;;;5.30;2.57;;;;;;;22.62;48.15;100308.66;5012869;28;20601;-63
2023/06/05 03:21:37;;;;;;;3.33;2.23;;;;;;;22.61;47.89;100307.03;5028708;28;20411;-63
2023/06/05 03:24:05;;;;;;;4.67;2.80;;;;;;;22.61;47.70;100315.66;5028703;28;20411;-63
2023/06/05 03:26:32;;;;;;;3.57;2.40;;;;;;;22.60;48.11;100305.38;5027752;28;20727;-63
2023/06/05 03:28:57;;;;;;;5.33;2.20;;;;;;;22.61;48.25;100306.19;5024879;28;20438;-63
2023/06/05 03:31:23;;;;;;;5.43;2.27;;;;;;;22.60;47.82;100302.50;5028211;28;20444;-64
2023/06/05 03:33:48;;;;;;;4.67;2.50;;;;;;;22.59;47.64;100306.63;5022124;28;20189;-63
2023/06/05 03:36:17;;;;;;;4.73;2.30;;;;;;;22.59;48.02;100306.63;5025704;28;20188;-64
2023/06/05 03:38:43;;;;;;;4.93;2.57;;;;;;;22.59;48.10;100312.38;5020137;28;20180;-63
2023/06/05 03:41:08;;;;;;;4.90;2.10;;;;;;;22.59;47.84;100306.63;5011578;28;20792;-64
2023/06/05 03:43:34;;;;;;;3.80;2.83;;;;;;;22.59;48.01;100308.66;5022849;28;20510;-63
2023/06/05 03:45:59;;;;;;;4.57;2.60;;;;;;;22.58;47.85;100307.81;5022029;28;20231;-64
2023/06/05 03:48:26;;;;;;;7.90;2.50;;;;;;;22.58;48.09;100315.66;5012782;28;20180;-64
2023/06/05 03:50:53;;;;;;;3.13;1.90;;;;;;;22.58;47.47;100316.47;5026999;28;20303;-63
2023/06/05 03:53:19;;;;;;;3.23;2.27;;;;;;;22.58;47.93;100315.66;5010085;28;20432;-63
2023/06/05 03:55:49;;;;;;;3.50;2.10;;;;;;;22.57;47.55;100323.44;5017890;28;21000;-64
2023/06/05 03:58:14;;;;;;;4.87;2.23;;;;;;;22.57;47.70;100316.88;5028381;28;20533;-64
2023/06/05 04:00:42;;;;;;;3.83;2.13;;;;;;;22.56;47.94;100318.94;5026675;28;20403;-64
2023/06/05 04:03:09;;;;;;;4.30;2.07;;;;;;;22.56;47.77;100320.97;5024730;28;20177;-63
2023/06/05 04:05:35;;;;;;;4.13;2.67;;;;;;;22.56;47.72;100321.81;5008424;28;20404;-62
2023/06/05 04:08:01;;;;;;;4.20;2.20;;;;;;;22.57;48.08;100326.31;5008096;28;20757;-62
2023/06/05 04:10:26;;;;;;;3.70;2.07;;;;;;;22.54;48.01;100327.16;5014109;28;20439;-62
2023/06/05 04:12:52;;;;;;;5.23;2.00;;;;;;;22.55;47.77;100322.22;5021190;28;20983;-62
2023/06/05 04:15:17;;;;;;;3.60;2.03;;;;;;;22.55;48.02;100325.91;5023224;28;20547;-62
2023/06/05 04:17:43;;;;;;;3.40;2.17;;;;;;;22.55;47.84;100322.22;5007318;28;20220;-62
2023/06/05 04:20:14;;;;;;;4.13;1.80;;;;;;;22.55;47.77;100331.69;5008283;28;20181;-62
2023/06/05 04:22:40;;;;;;;5.30;2.80;;;;;;;22.54;47.83;100327.16;5006748;28;20177;-62
2023/06/05 04:25:05;;;;;;;4.87;2.17;;;;;;;22.54;47.41;100324.28;5007742;28;20471;-62
2023/06/05 04:27:31;;;;;;;3.40;2.23;;;;;;;22.55;47.78;100327.97;5017461;28;20420;-62
2023/06/05 04:29:56;;;;;;;3.13;1.87;;;;;;;22.54;47.91;100335.78;5011195;28;20204;-62
2023/06/05 04:32:22;;;;;;;3.23;2.20;;;;;;;22.54;47.67;100338.66;5026919;28;20173;-62
2023/06/05 04:34:47;;;;;;;4.33;2.20;;;;;;;22.54;47.55;100334.97;5045528;28;20172;-62
2023/06/05 04:37:13;;;;;;;3.33;2.13;;;;;;;22.56;47.50;100344.00;5026951;28;20207;-63
2023/06/05 04:39:38;;;;;;;3.00;2.00;;;;;;;22.58;47.67;100341.53;5043626;28;20851;-63
2023/06/05 04:42:04;;;;;;;5.10;2.40;;;;;;;22.59;47.71;100332.50;5015604;28;20176;-63
2023/06/05 04:44:30;;;;;;;3.77;2.23;;;;;;;22.59;47.53;100338.28;5047306;28;20299;-63
2023/06/05 04:46:55;;;;;;;5.67;2.43;;;;;;;22.60;47.96;100345.66;5031678;28;20603;-63
2023/06/05 04:49:22;;;;;;;3.03;1.83;;;;;;;22.61;47.88;100344.44;5024505;28;20188;-63
2023/06/05 04:51:48;;;;;;;3.63;2.17;;;;;;;22.60;47.90;100347.72;5012361;28;20173;-63
2023/06/05 04:54:13;;;;;;;5.17;2.20;;;;;;;22.59;47.51;100346.91;5029956;28;20411;-63
2023/06/05 04:56:39;;;;;;;3.43;2.13;;;;;;;22.57;48.16;100346.47;5028603;28;20250;-63
2023/06/05 04:59:05;;;;;;;3.97;1.80;;;;;;;22.57;48.17;100345.66;5030312;28;20165;-63
2023/06/05 05:01:30;;;;;;;5.30;2.40;;;;;;;22.57;47.83;100348.53;5020195;28;20323;-63
2023/06/05 05:03:56;;;;;;;3.70;2.03;;;;;;;22.57;48.09;100351.41;5011217;28;20168;-63
2023/06/05 05:06:21;;;;;;;5.80;2.23;;;;;;;22.56;47.80;100350.59;5026035;28;20270;-63
2023/06/05 05:08:50;;;;;;;3.70;2.13;;;;;;;22.58;47.75;100350.19;5026370;28;20201;-63
2023/06/05 05:11:16;;;;;;;3.63;2.20;;;;;;;22.57;48.14;100349.34;5024021;28;20237;-63
2023/06/05 05:13:42;;;;;;;4.73;2.03;;;;;;;22.57;48.42;100351.41;5026040;28;20853;-63
2023/06/05 05:16:08;;;;;;;6.07;2.13;;;;;;;22.57;48.96;100357.19;5028965;28;20222;-63
2023/06/05 05:18:34;;;;;;;4.73;2.47;;;;;;;22.56;48.30;100353.47;5027039;28;20189;-63
2023/06/05 05:21:00;;;;;;;2.80;1.77;;;;;;;22.57;48.00;100351.41;5027511;28;20188;-64
2023/06/05 05:23:25;;;;;;;3.07;2.00;;;;;;;22.59;47.92;100360.47;5014642;28;20993;-64
2023/06/05 05:25:51;;;;;;;3.60;2.23;;;;;;;22.60;48.07;100356.34;5011897;28;20189;-64
2023/06/05 05:28:16;;;;;;;3.73;2.10;;;;;;;22.63;48.47;100346.91;5019855;28;20197;-65
2023/06/05 05:30:42;;;;;;;4.00;2.30;;;;;;;22.63;48.32;100356.34;5012077;28;20184;-64
2023/06/05 05:33:07;;;;;;;3.63;2.17;;;;;;;22.63;47.65;100359.22;5029837;28;20187;-64
2023/06/05 05:35:33;;;;;;;4.17;2.33;;;;;;;22.62;47.69;100354.69;5010629;28;21060;-64
2023/06/05 05:37:58;;;;;;;4.83;2.37;;;;;;;22.61;48.08;100366.63;5010615;28;20652;-64
2023/06/05 05:40:23;;;;;;;3.57;2.40;;;;;;;22.60;48.06;100360.06;5014207;28;20653;-63
2023/06/05 05:42:49;;;;;;;4.30;2.40;;;;;;;22.59;48.18;100361.28;5025390;28;20184;-63
2023/06/05 05:45:15;;;;;;;3.10;2.20;;;;;;;22.57;48.79;100357.97;5016567;28;20202;-63
2023/06/05 05:47:40;;;;;;;4.33;2.23;;;;;;;22.57;48.98;100369.50;5023183;28;20177;-63
2023/06/05 05:50:06;;;;;;;4.50;2.37;;;;;;;22.56;48.04;100367.84;5030137;28;20207;-63
2023/06/05 05:52:31;;;;;;;3.20;1.93;;;;;;;22.56;48.39;100364.97;5016902;28;20662;-63
2023/06/05 05:54:58;;;;;;;3.63;2.07;;;;;;;22.57;48.35;100365.81;5023715;28;20428;-63
2023/06/05 05:57:24;;;;;;;3.80;2.13;;;;;;;22.55;48.11;100363.34;5011017;28;20595;-64
2023/06/05 05:59:50;;;;;;;5.30;2.30;;;;;;;22.54;48.12;100364.56;5011162;28;20865;-64
2023/06/05 06:02:16;;;;;;;2.53;1.67;;;;;;;22.55;48.41;100354.69;5010239;28;20412;-64
2023/06/05 06:04:43;;;;;;;3.30;2.00;;;;;;;22.58;48.40;100364.56;5016238;28;20270;-64
2023/06/05 06:07:09;;;;;;;5.80;2.30;;;;;;;22.60;48.65;100362.94;5010140;28;20404;-64
2023/06/05 06:09:35;;;;;;;4.50;2.30;;;;;;;22.62;48.39;100365.41;5010234;28;20459;-64
2023/06/05 06:12:05;;;;;;;4.27;2.00;;;;;;;22.63;48.17;100361.28;5025243;28;20426;-64
2023/06/05 06:14:31;;;;;;;3.40;2.17;;;;;;;22.64;48.71;100363.78;5019226;28;20239;-64
2023/06/05 06:16:57;;;;;;;3.90;2.10;;;;;;;22.63;47.14;100364.97;5009490;28;20491;-64
2023/06/05 06:19:23;;;;;;;10.30;2.30;;;;;;;22.62;47.90;100363.34;5017596;28;20791;-64
2023/06/05 06:21:51;;;;;;;4.33;2.30;;;;;;;22.60;47.42;100368.69;5010086;28;20477;-64
2023/06/05 06:24:19;;;;;;;4.50;2.10;;;;;;;22.58;47.64;100362.50;5009549;28;20209;-64
2023/06/05 06:26:45;;;;;;;4.53;1.90;;;;;;;22.56;47.76;100367.84;5020073;28;20847;-64
2023/06/05 06:29:13;;;;;;;5.83;2.00;;;;;;;22.56;47.65;100376.47;5022885;28;20449;-64
2023/06/05 06:31:38;;;;;;;9.17;2.30;;;;;;;22.55;47.92;100371.97;5039721;28;20414;-64
2023/06/05 06:34:04;;;;;;;5.57;2.13;;;;;;;22.55;48.16;100371.97;5034379;28;20458;-64
2023/06/05 06:36:29;;;;;;;4.67;2.20;;;;;;;22.55;47.95;100376.88;5044842;28;20204;-63
2023/06/05 06:38:55;;;;;;;5.47;2.20;;;;;;;22.54;48.22;100372.38;5050310;28;20172;-63
2023/06/05 06:41:21;;;;;;;5.33;2.53;;;;;;;22.53;48.36;100368.66;5034515;28;20216;-63
2023/06/05 06:43:46;;;;;;;4.30;2.07;;;;;;;22.53;47.99;100374.41;5049046;28;20180;-63
2023/06/05 06:46:12;;;;;;;4.17;2.33;;;;;;;22.54;48.22;100381.84;5045280;28;20435;-64
2023/06/05 06:48:38;;;;;;;4.83;2.70;;;;;;;22.54;47.91;100383.88;5052140;28;20193;-63
2023/06/05 06:51:04;;;;;;;6.00;2.10;;;;;;;22.54;48.67;100378.13;5040407;28;20283;-64
2023/06/05 06:53:29;;;;;;;4.30;2.10;;;;;;;22.53;48.59;100385.91;5031977;28;20520;-63
2023/06/05 06:55:55;;;;;;;3.97;2.40;;;;;;;22.53;47.93;100377.28;5034353;28;20185;-63
2023/06/05 06:58:20;;;;;;;5.63;2.70;;;;;;;22.51;47.92;100385.50;5046175;28;20204;-63
2023/06/05 07:00:47;;;;;;;4.13;2.20;;;;;;;22.52;48.00;100390.03;5052108;28;20184;-64
2023/06/05 07:03:12;;;;;;;9.53;3.07;;;;;;;22.54;47.40;100386.75;5036030;28;20169;-64
2023/06/05 07:05:38;;;;;;;5.70;1.87;;;;;;;22.55;48.07;100377.72;5043678;28;20428;-64
2023/06/05 07:08:03;;;;;;;5.00;2.03;;;;;;;22.55;48.15;100389.22;5034611;28;20169;-64
2023/06/05 07:10:29;;;;;;;7.70;2.57;;;;;;;22.56;48.31;100384.28;5036471;28;20224;-63
2023/06/05 07:12:54;;;;;;;6.40;2.80;;;;;;;22.54;47.97;100376.06;5033503;28;20220;-63
2023/06/05 07:15:20;;;;;;;6.00;1.87;;;;;;;22.55;47.64;100380.59;5032093;28;20177;-63
2023/06/05 07:17:46;;;;;;;5.53;2.30;;;;;;;22.54;47.88;100387.59;5036703;28;20304;-63
2023/06/05 07:20:12;;;;;;;7.63;2.50;;;;;;;22.53;48.20;100380.16;5047247;28;20177;-63
2023/06/05 07:22:42;;;;;;;7.40;2.40;;;;;;;22.54;48.50;100383.88;5049057;28;20229;-63
2023/06/05 07:25:09;;;;;;;6.40;3.00;;;;;;;22.52;48.53;100384.28;5053801;28;20423;-63
2023/06/05 07:27:35;;;;;;;4.33;2.13;;;;;;;22.52;48.33;100384.28;5051334;28;20431;-63
2023/06/05 07:30:01;;;;;;;5.73;3.00;;;;;;;22.52;48.70;100381.41;5048096;28;20889;-63
2023/06/05 07:32:26;;;;;;;5.57;2.63;;;;;;;22.52;47.94;100378.53;5032013;28;20442;-63
2023/06/05 07:34:52;;;;;;;8.17;2.50;;;;;;;22.52;48.24;100386.34;5030504;28;20424;-63
2023/06/05 07:37:17;;;;;;;4.73;2.00;;;;;;;22.52;48.52;100378.53;5046220;28;20215;-63
2023/06/05 07:39:43;;;;;;;5.57;2.20;;;;;;;22.51;48.47;100374.00;5046872;28;20157;-63
2023/06/05 07:42:08;;;;;;;4.93;2.63;;;;;;;22.52;48.49;100381.41;5049334;28;20169;-63
2023/06/05 07:44:34;;;;;;;4.53;1.80;;;;;;;22.51;48.60;100376.88;5048983;28;20175;-63
2023/06/05 07:46:59;;;;;;;6.80;2.50;;;;;;;22.52;48.64;100371.97;5050386;28;20164;-63
2023/06/05 07:49:25;;;;;;;8.40;2.50;;;;;;;22.52;47.99;100375.66;5050383;28;20187;-63
2023/06/05 07:51:50;;;;;;;6.80;3.40;;;;;;;22.52;48.13;100375.66;5042009;28;20165;-63
2023/06/05 07:54:16;;;;;;;3.67;1.90;;;;;;;22.52;48.11;100383.47;5032002;28;20670;-63
2023/06/05 07:56:41;;;;;;;12.93;2.03;;;;;;;22.51;48.50;100379.75;5033108;28;20227;-63
2023/06/05 07:59:07;;;;;;;4.77;2.37;;;;;;;22.51;48.28;100373.16;5046294;28;20239;-63
2023/06/05 08:01:39;;;;;;;4.60;2.23;;;;;;;22.51;48.21;100379.75;5040858;28;20193;-63
2023/06/05 08:04:07;;;;;;;6.37;1.97;;;;;;;22.50;48.10;100378.13;5030219;28;20196;-63
2023/06/05 08:06:33;;;;;;;6.00;2.33;;;;;;;22.52;48.46;100374.84;5030654;28;20415;-63
2023/06/05 08:08:59;;;;;;;16.30;3.10;;;;;;;22.51;48.41;100374.00;5031290;28;20459;-64
2023/06/05 08:11:26;;;;;;;7.77;2.27;;;;;;;22.51;48.44;100376.88;5046440;28;20181;-64
2023/06/05 08:13:51;;;;;;;4.03;1.97;;;;;;;22.51;48.38;100370.28;5045789;28;20454;-64
2023/06/05 08:16:17;;;;;;;2.87;1.90;;;;;;;22.52;48.03;100371.97;5040127;28;20458;-64
2023/06/05 08:18:42;;;;;;;6.10;2.17;;;;;;;22.52;48.27;100366.19;5032719;28;20181;-64
2023/06/05 08:21:08;;;;;;;5.50;2.20;;;;;;;22.52;47.94;100367.00;5032292;28;20203;-64
2023/06/05 08:23:33;;;;;;;4.40;2.50;;;;;;;22.51;47.99;100350.16;5030155;28;20161;-64
2023/06/05 08:25:59;;;;;;;14.50;3.30;;;;;;;22.51;48.09;100356.72;5040566;28;20471;-64
2023/06/05 08:28:24;;;;;;;7.73;2.43;;;;;;;22.51;48.67;100345.22;5031183;28;20208;-64
2023/06/05 08:30:51;;;;;;;5.10;2.40;;;;;;;22.51;48.72;100348.09;5034095;28;20172;-64
2023/06/05 08:33:20;;;;;;;3.67;2.10;;;;;;;22.51;48.67;100359.63;5035348;28;20187;-64
2023/06/05 08:35:45;;;;;;;7.10;2.70;;;;;;;22.51;48.23;100353.84;5045375;28;20428;-64
2023/06/05 08:38:11;;;;;;;4.47;2.53;;;;;;;22.51;48.31;100355.91;5030117;28;20444;-64
2023/06/05 08:40:36;;;;;;;4.70;2.00;;;;;;;22.51;48.28;100347.28;5039008;28;20184;-64
2023/06/05 08:43:02;;;;;;;4.27;2.10;;;;;;;22.52;48.46;100354.69;5039665;28;20177;-64
2023/06/05 08:45:27;;;;;;;8.93;2.90;;;;;;;22.52;48.36;100348.94;5031641;28;20228;-64
2023/06/05 08:47:54;;;;;;;4.10;2.23;;;;;;;22.51;48.59;100353.84;5032379;28;20181;-64
2023/06/05 08:50:19;;;;;;;5.83;2.17;;;;;;;22.53;48.48;100353.47;5031188;28;20181;-64
2023/06/05 08:52:46;;;;;;;4.80;2.53;;;;;;;22.52;48.26;100349.75;5043158;28;20435;-64
2023/06/05 08:55:11;;;;;;;5.67;1.90;;;;;;;22.52;48.42;100352.63;5046010;28;20173;-64
2023/06/05 08:57:41;;;;;;;5.00;2.20;;;;;;;22.53;48.24;100350.59;5042314;28;20506;-65
2023/06/05 09:00:07;;;;;;;3.60;2.23;;;;;;;22.54;48.40;100347.31;5028954;28;20283;-64
2023/06/05 09:02:48;;;;;;;4.63;2.40;;;;;;;22.54;48.17;100343.59;5028915;28;20424;-64
2023/06/05 09:05:14;;;;;;;3.13;1.93;;;;;;;22.54;48.48;100353.06;5027717;28;20418;-64
2023/06/05 09:07:40;;;;;;;5.50;2.30;;;;;;;22.53;48.45;100341.94;5031556;28;20508;-64
2023/06/05 09:10:08;;;;;;;4.87;2.13;;;;;;;22.54;48.07;100347.31;5030114;28;20474;-64
2023/06/05 09:12:52;;;;;;;2.70;1.70;;;;;;;22.53;47.98;100333.31;5047674;28;20248;-63
2023/06/05 09:15:24;;;;;;;3.90;1.90;;;;;;;22.54;47.88;100335.78;5037101;28;20443;-64
2023/06/05 09:18:07;;;;;;;5.63;2.60;;;;;;;22.54;48.11;100334.97;5028183;28;20448;-64
2023/06/05 09:20:34;;;;;;;3.23;2.10;;;;;;;22.54;47.75;100335.78;5035163;28;20403;-64
2023/06/05 09:23:01;;;;;;;5.93;2.03;;;;;;;22.54;47.92;100341.53;5044171;28;20468;-64
2023/06/05 09:25:28;;;;;;;5.33;2.27;;;;;;;22.55;48.56;100331.69;5032897;28;20511;-64
2023/06/05 09:28:15;;;;;;;4.60;2.47;;;;;;;22.53;48.29;100319.72;5032321;28;20384;-64
2023/06/05 09:30:59;;;;;;;7.00;2.90;;;;;;;22.55;48.28;100323.03;5043503;28;20498;-64
2023/06/05 09:33:26;;;;;;;3.80;1.97;;;;;;;22.54;48.24;100324.28;5041038;28;21117;-64
2023/06/05 09:36:05;;;;;;;17.60;3.10;;;;;;;22.55;48.15;100320.16;5038081;28;20435;-64
2023/06/05 09:38:30;;;;;;;4.90;2.30;;;;;;;22.57;47.62;100316.88;5041119;28;20572;-64
2023/06/05 09:41:09;;;;;;;8.23;2.93;;;;;;;22.56;48.05;100310.28;5052913;28;20878;-64
2023/06/05 09:43:36;;;;;;;3.27;2.10;;;;;;;22.56;48.38;100315.22;5050236;28;20313;-64
2023/06/05 09:46:15;;;;;;;3.97;2.20;;;;;;;22.57;48.23;100308.25;5049381;28;20419;-64
2023/06/05 09:48:41;;;;;;;3.50;2.30;;;;;;;22.57;48.26;100306.19;5034709;28;20435;-64
2023/06/05 09:51:11;;;;;;;7.07;2.60;;;;;;;22.57;48.12;100308.25;5039910;28;20432;-64
2023/06/05 09:53:42;;;;;;;3.37;2.10;;;;;;;22.57;47.76;100311.13;5039455;28;20436;-64
2023/06/05 09:56:12;;;;;;;11.60;2.53;;;;;;;22.58;48.08;100302.06;5030860;28;20455;-64
2023/06/05 09:58:37;;;;;;;9.90;2.43;;;;;;;22.57;47.84;100306.19;5030277;28;20467;-64
2023/06/05 10:01:04;;;;;;;5.70;2.37;;;;;;;22.59;48.19;100302.91;5036094;28;20430;-64
2023/06/05 10:03:30;;;;;;;3.80;2.67;;;;;;;22.59;47.94;100291.38;5039950;28;20184;-65
2023/06/05 10:05:56;;;;;;;3.00;2.17;;;;;;;22.60;47.78;100295.91;5036488;28;20423;-64
2023/06/05 10:08:21;;;;;;;4.37;2.30;;;;;;;22.59;48.16;100286.47;5046053;28;20180;-64
2023/06/05 10:10:47;;;;;;;5.77;2.70;;;;;;;22.60;47.83;100288.09;5034247;28;20582;-64
2023/06/05 10:13:13;;;;;;;6.00;2.30;;;;;;;22.60;47.91;100293.88;5044879;28;20256;-64
2023/06/05 10:15:38;;;;;;;4.43;2.47;;;;;;;22.60;48.05;100288.09;5029970;28;20420;-64
2023/06/05 10:18:05;;;;;;;4.00;2.40;;;;;;;22.61;47.91;100281.13;5037116;28;20209;-64
2023/06/05 10:20:30;;;;;;;4.17;2.73;;;;;;;22.61;48.17;100278.25;5040306;28;20180;-64
2023/06/05 10:22:56;;;;;;;5.00;3.10;;;;;;;22.62;48.00;100282.75;5034671;28;20645;-64
2023/06/05 10:25:21;;;;;;;8.33;2.43;;;;;;;22.62;48.08;100282.75;5044030;28;20185;-64
2023/06/05 10:28:10;;;;;;;4.40;2.57;;;;;;;22.63;48.47;100278.63;5047865;28;20173;-64
2023/06/05 10:31:29;;;;;;;3.80;2.30;;;;;;;22.63;48.22;100281.53;5034432;28;20169;-65
2023/06/05 10:34:04;;;;;;;5.37;2.57;;;;;;;22.63;48.05;100281.53;4969399;28;20419;-64
2023/06/05 10:36:54;;;;;;;6.70;2.73;;;;;;;22.64;48.33;100274.56;5028094;28;20863;-64
2023/06/05 10:39:19;;;;;;;4.73;2.90;;;;;;;22.64;48.59;100270.84;5042004;28;20427;-64
2023/06/05 10:41:45;;;;;;;5.40;2.93;;;;;;;22.64;48.40;100274.56;5044091;28;20474;-64
2023/06/05 10:44:12;;;;;;;14.33;2.70;;;;;;;22.65;48.60;100267.56;5039033;28;20235;-64
2023/06/05 10:46:38;;;;;;;4.80;2.87;;;;;;;22.65;48.28;100273.31;5048976;28;20226;-64
2023/06/05 10:49:12;;;;;;;4.20;2.63;;;;;;;22.67;48.84;100267.97;5042933;28;20426;-65
2023/06/05 10:51:37;;;;;;;6.60;3.30;;;;;;;22.66;48.31;100263.44;5047677;28;20183;-64
2023/06/05 10:54:05;;;;;;;6.30;2.90;;;;;;;22.67;49.13;100253.56;5044534;28;20419;-64
2023/06/05 10:56:56;;;;;;;4.90;2.47;;;;;;;22.66;49.29;100257.69;5033780;28;20209;-65
2023/06/05 10:59:23;;;;;;;3.20;2.50;;;;;;;22.68;49.13;100260.16;5029054;28;20423;-65
2023/06/05 11:04:47;;;;;;;4.90;2.90;;;;;;;22.69;49.06;100244.53;5039206;28;20423;-64
2023/06/05 11:07:22;;;;;;;5.17;2.80;;;;;;;22.69;48.88;100245.38;5037576;28;20434;-64
2023/06/05 11:12:34;;;;;;;4.80;2.90;;;;;;;22.70;49.53;100240.41;5036994;28;20658;-64
2023/06/05 11:15:00;;;;;;;6.27;3.00;;;;;;;22.71;48.60;100242.06;5042191;28;20427;-64
2023/06/05 11:17:35;;;;;;;6.97;3.20;;;;;;;22.71;49.31;100234.25;5034814;28;20474;-63
2023/06/05 11:20:10;;;;;;;5.10;2.93;;;;;;;22.72;49.45;100244.53;5041809;28;20307;-63
2023/06/05 11:22:53;;;;;;;5.83;3.27;;;;;;;22.72;49.53;100235.09;5039526;28;20435;-63
2023/06/05 11:25:24;;;;;;;6.00;3.00;;;;;;;22.72;49.85;100244.53;5042292;28;20423;-64
2023/06/05 11:27:52;;;;;;;5.90;3.00;;;;;;;22.72;49.85;100233.00;5043894;28;20438;-64
2023/06/05 11:30:20;;;;;;;5.60;3.20;;;;;;;22.73;49.56;100239.59;5033602;28;20432;-64